createdAt,value
2023-02-09T00:00:34.866Z,50.70
2023-02-09T00:03:30.621Z,50.60
2023-02-09T00:06:05.074Z,48.70
2023-02-09T00:08:38.107Z,50.50
2023-02-09T00:11:12.356Z,51.70
2023-02-09T00:13:45.693Z,50.00
2023-02-09T00:16:17.482Z,49.90
2023-02-09T00:18:49.228Z,49.80
2023-02-09T00:21:21.352Z,48.50
2023-02-09T00:23:53.003Z,49.50
2023-02-09T00:26:25.535Z,49.70
2023-02-09T00:28:57.339Z,51.90
2023-02-09T00:31:29.475Z,38.10
2023-02-09T00:34:03.667Z,47.70
2023-02-09T00:36:35.890Z,47.70
2023-02-09T00:39:09.655Z,48.50
2023-02-09T00:41:59.650Z,51.60
2023-02-09T00:44:33.143Z,48.70
2023-02-09T00:47:06.015Z,50.10
2023-02-09T00:49:40.076Z,51.80
2023-02-09T00:52:12.268Z,51.20
2023-02-09T00:54:44.980Z,51.90
2023-02-09T00:57:16.868Z,51.80
2023-02-09T00:59:48.846Z,53.20
2023-02-09T01:02:21.056Z,54.60
2023-02-09T01:04:53.515Z,48.90
2023-02-09T01:07:25.426Z,52.80
2023-02-09T01:10:00.029Z,53.10
2023-02-09T01:12:32.944Z,51.30
2023-02-09T01:15:05.080Z,47.80
2023-02-09T01:17:37.540Z,50.40
2023-02-09T01:20:11.611Z,48.50
2023-02-09T01:22:43.539Z,49.90
2023-02-09T01:25:16.480Z,48.40
2023-02-09T01:27:48.394Z,49.40
2023-02-09T01:30:20.160Z,49.50
2023-02-09T01:32:52.628Z,37.90
2023-02-09T01:35:25.016Z,46.20
2023-02-09T01:37:56.917Z,45.80
2023-02-09T01:40:28.831Z,47.40
2023-02-09T01:43:01.238Z,46.20
2023-02-09T01:45:37.655Z,46.20
2023-02-09T01:48:09.397Z,47.40
2023-02-09T01:50:45.182Z,34.00
2023-02-09T01:53:18.849Z,48.70
2023-02-09T01:55:55.918Z,47.50
2023-02-09T01:58:29.723Z,48.00
2023-02-09T02:01:01.995Z,47.00
2023-02-09T02:03:34.348Z,43.60
2023-02-09T02:06:12.055Z,45.20
2023-02-09T02:08:49.085Z,45.20
2023-02-09T02:11:21.490Z,47.50
2023-02-09T02:13:53.940Z,42.90
2023-02-09T02:16:40.216Z,45.00
2023-02-09T02:19:40.049Z,44.50
2023-02-09T02:22:42.097Z,43.20
2023-02-09T02:25:39.445Z,42.00
2023-02-09T02:28:34.027Z,42.70
2023-02-09T02:31:28.503Z,42.10
2023-02-09T02:34:05.464Z,41.80
2023-02-09T02:36:45.871Z,41.70
2023-02-09T02:39:24.300Z,41.60
2023-02-09T02:42:21.271Z,41.50
2023-02-09T02:44:59.605Z,42.40
2023-02-09T02:47:36.301Z,40.80
2023-02-09T02:50:13.731Z,42.40
2023-02-09T02:52:49.629Z,43.80
2023-02-09T02:55:25.481Z,42.10
2023-02-09T02:58:03.197Z,41.50
2023-02-09T03:00:40.568Z,42.70
2023-02-09T03:03:15.833Z,44.50
2023-02-09T03:05:48.521Z,46.30
2023-02-09T03:08:20.303Z,45.30
2023-02-09T03:10:52.847Z,44.40
2023-02-09T03:16:22.462Z,40.30
2023-02-09T03:19:13.099Z,41.00
2023-02-09T03:21:53.893Z,42.80
2023-02-09T03:24:36.616Z,41.70
2023-02-09T03:27:19.506Z,42.60
2023-02-09T03:29:54.942Z,44.90
2023-02-09T03:32:27.717Z,44.20
2023-02-09T03:35:00.046Z,41.70
2023-02-09T03:37:31.991Z,44.70
2023-02-09T03:40:04.269Z,43.20
2023-02-09T03:42:36.115Z,42.90
2023-02-09T03:45:09.451Z,43.00
2023-02-09T03:47:41.702Z,45.80
2023-02-09T03:50:14.065Z,42.90
2023-02-09T03:52:46.096Z,42.90
2023-02-09T03:55:18.046Z,43.50
2023-02-09T03:57:49.898Z,42.20
2023-02-09T04:00:22.123Z,35.30
2023-02-09T04:02:54.144Z,42.50
2023-02-09T04:05:25.990Z,37.20
2023-02-09T04:08:00.449Z,43.70
2023-02-09T04:10:32.243Z,43.50
2023-02-09T04:13:04.076Z,47.30
2023-02-09T04:15:36.517Z,44.30
2023-02-09T04:18:08.625Z,45.40
2023-02-09T04:20:40.366Z,45.30
2023-02-09T04:23:12.414Z,45.30
2023-02-09T04:25:45.520Z,43.60
2023-02-09T04:28:17.445Z,43.10
2023-02-09T04:30:54.938Z,45.00
2023-02-09T04:33:27.364Z,42.80
2023-02-09T04:35:59.889Z,45.00
2023-02-09T04:38:31.908Z,44.80
2023-02-09T04:41:05.296Z,45.20
2023-02-09T04:43:37.119Z,44.70
2023-02-09T04:46:12.869Z,46.90
2023-02-09T04:48:45.999Z,43.90
2023-02-09T04:51:17.809Z,45.60
2023-02-09T04:53:49.577Z,34.20
2023-02-09T04:56:21.404Z,45.80
2023-02-09T04:59:10.910Z,44.70
2023-02-09T05:01:42.905Z,44.80
2023-02-09T05:04:14.638Z,44.30
2023-02-09T05:06:46.387Z,46.60
2023-02-09T05:09:18.214Z,45.30
2023-02-09T05:11:50.103Z,45.20
2023-02-09T05:14:22.104Z,43.00
2023-02-09T05:16:54.208Z,45.50
2023-02-09T05:19:26.295Z,46.30
2023-02-09T05:21:58.483Z,45.50
2023-02-09T05:24:30.705Z,44.30
2023-02-09T05:27:02.456Z,33.20
2023-02-09T05:29:34.181Z,31.80
2023-02-09T05:32:06.338Z,44.90
2023-02-09T05:34:38.495Z,44.20
2023-02-09T05:37:10.263Z,45.20
2023-02-09T05:39:42.031Z,45.00
2023-02-09T05:42:17.769Z,44.30
2023-02-09T05:44:50.909Z,45.70
2023-02-09T05:47:25.611Z,45.80
2023-02-09T05:49:58.337Z,44.80
2023-02-09T05:55:00.967Z,43.20
2023-02-09T05:57:32.822Z,43.50
2023-02-09T06:00:05.455Z,32.90
2023-02-09T06:02:44.116Z,45.40
2023-02-09T06:05:16.123Z,44.00
2023-02-09T06:07:47.946Z,44.20
2023-02-09T06:10:20.090Z,45.60
2023-02-09T06:12:52.176Z,46.70
2023-02-09T06:15:23.891Z,44.20
2023-02-09T06:17:56.118Z,45.40
2023-02-09T06:20:28.474Z,48.30
2023-02-09T06:23:00.242Z,48.80
2023-02-09T06:25:32.274Z,44.00
2023-02-09T06:28:04.427Z,44.60
2023-02-09T06:30:36.387Z,44.40
2023-02-09T06:33:08.136Z,45.60
2023-02-09T06:35:40.136Z,43.10
2023-02-09T06:38:11.943Z,44.90
2023-02-09T06:40:44.129Z,46.60
2023-02-09T06:43:16.133Z,46.90
2023-02-09T06:45:47.944Z,47.00
2023-02-09T06:48:20.017Z,47.30
2023-02-09T06:53:22.834Z,44.60
2023-02-09T06:56:00.047Z,46.30
2023-02-09T06:58:31.999Z,45.90
2023-02-09T07:01:05.961Z,43.70
2023-02-09T07:03:38.355Z,43.70
2023-02-09T07:06:13.113Z,46.00
2023-02-09T07:08:46.154Z,44.50
2023-02-09T07:11:19.303Z,43.50
2023-02-09T07:13:51.221Z,45.10
2023-02-09T07:16:24.166Z,45.70
2023-02-09T07:18:56.186Z,42.20
2023-02-09T07:21:28.354Z,42.40
2023-02-09T07:24:00.296Z,43.90
2023-02-09T07:26:32.485Z,43.90
2023-02-09T07:29:05.285Z,46.40
2023-02-09T07:31:37.511Z,44.80
2023-02-09T07:34:09.827Z,43.00
2023-02-09T07:36:41.762Z,44.60
2023-02-09T07:39:14.406Z,41.90
2023-02-09T07:41:46.484Z,41.40
2023-02-09T07:44:18.645Z,41.80
2023-02-09T07:46:50.746Z,40.90
2023-02-09T07:49:22.923Z,39.70
2023-02-09T07:51:55.139Z,40.40
2023-02-09T07:54:27.067Z,41.10
2023-02-09T07:56:59.395Z,42.30
2023-02-09T07:59:31.838Z,40.40
2023-02-09T08:02:05.247Z,40.70
2023-02-09T08:04:37.992Z,41.20
2023-02-09T08:07:10.081Z,39.60
2023-02-09T08:09:45.197Z,39.70
2023-02-09T08:12:18.754Z,39.20
2023-02-09T08:14:51.944Z,39.30
2023-02-09T08:17:25.953Z,41.30
2023-02-09T08:20:04.103Z,38.90
2023-02-09T08:22:39.784Z,40.10
2023-02-09T08:25:12.052Z,38.50
2023-02-09T08:27:45.287Z,39.20
2023-02-09T08:30:19.800Z,38.80
2023-02-09T08:32:51.752Z,38.50
2023-02-09T08:35:23.855Z,41.10
2023-02-09T08:37:56.048Z,28.90
2023-02-09T08:40:28.209Z,37.60
2023-02-09T08:43:00.710Z,40.80
2023-02-09T08:48:03.301Z,35.30
2023-02-09T08:50:36.142Z,36.30
2023-02-09T08:53:08.851Z,37.30
2023-02-09T08:55:40.964Z,35.00
2023-02-09T08:58:13.494Z,37.00
2023-02-09T09:00:46.670Z,37.50
2023-02-09T09:03:18.621Z,36.50
2023-02-09T09:05:51.173Z,37.00
2023-02-09T09:08:23.348Z,38.50
2023-02-09T09:10:55.370Z,38.70
2023-02-09T09:13:28.079Z,40.60
2023-02-09T09:16:00.666Z,38.00
2023-02-09T09:18:32.590Z,37.00
2023-02-09T09:21:04.861Z,39.70
2023-02-09T09:23:38.036Z,38.30
2023-02-09T09:26:10.541Z,39.10
2023-02-09T09:28:42.563Z,38.60
2023-02-09T09:31:17.415Z,37.30
2023-02-09T09:33:49.672Z,37.80
2023-02-09T09:36:21.801Z,37.40
2023-02-09T09:38:55.778Z,35.40
2023-02-09T09:41:37.559Z,38.00
2023-02-09T09:44:16.265Z,37.00
2023-02-09T09:46:52.979Z,37.70
2023-02-09T09:49:28.432Z,37.00
2023-02-09T09:52:04.998Z,37.50
2023-02-09T09:54:38.966Z,36.60
2023-02-09T09:57:20.992Z,34.60
2023-02-09T09:59:54.691Z,36.00
2023-02-09T10:02:30.383Z,34.30
2023-02-09T10:05:11.853Z,34.40
2023-02-09T10:07:46.242Z,31.90
2023-02-09T10:10:25.387Z,31.80
2023-02-09T10:13:02.328Z,30.90
2023-02-09T10:15:36.776Z,33.80
2023-02-09T10:18:17.946Z,30.90
2023-02-09T10:20:51.988Z,33.30
2023-02-09T10:23:27.616Z,29.20
2023-02-09T10:26:17.110Z,25.00
2023-02-09T10:28:51.113Z,24.60
2023-02-09T10:31:27.839Z,22.90
2023-02-09T10:34:04.967Z,24.80
2023-02-09T10:36:48.035Z,24.70
2023-02-09T10:39:23.841Z,24.40
2023-02-09T10:41:58.430Z,24.50
2023-02-09T10:44:39.421Z,26.40
2023-02-09T10:47:29.016Z,26.20
2023-02-09T10:50:09.242Z,25.30
2023-02-09T10:52:44.471Z,25.60
2023-02-09T10:55:22.574Z,23.30
2023-02-09T10:58:04.731Z,22.50
2023-02-09T11:00:44.383Z,16.70
2023-02-09T11:03:20.528Z,23.30
2023-02-09T11:06:00.898Z,21.80
2023-02-09T11:08:42.715Z,21.30
2023-02-09T11:11:28.587Z,21.30
2023-02-09T11:14:01.669Z,21.00
2023-02-09T11:16:58.024Z,19.90
2023-02-09T11:19:59.736Z,19.90
2023-02-09T11:22:49.558Z,20.30
2023-02-09T11:25:26.226Z,18.70
2023-02-09T11:28:31.658Z,20.30
2023-02-09T11:31:17.893Z,19.20
2023-02-09T11:34:01.686Z,20.30
2023-02-09T11:36:46.978Z,19.70
2023-02-09T11:39:26.111Z,22.60
2023-02-09T11:42:22.135Z,21.40
2023-02-09T11:45:00.550Z,23.90
2023-02-09T11:47:43.926Z,22.40
2023-02-09T11:50:25.374Z,23.60
2023-02-09T11:53:01.130Z,22.90
2023-02-09T11:55:38.510Z,24.40
2023-02-09T11:58:31.471Z,21.20
2023-02-09T12:01:15.792Z,20.40
2023-02-09T12:04:00.613Z,19.70
2023-02-09T12:06:38.527Z,21.10
2023-02-09T12:09:27.383Z,19.40
2023-02-09T12:12:09.708Z,19.00
2023-02-09T12:14:56.379Z,17.80
2023-02-09T12:17:37.492Z,19.40
2023-02-09T12:20:27.660Z,19.60
2023-02-09T12:23:02.550Z,20.00
2023-02-09T12:25:51.528Z,18.00
2023-02-09T12:28:46.617Z,17.80
2023-02-09T12:31:24.790Z,16.70
2023-02-09T12:34:30.179Z,17.60
2023-02-09T12:37:27.335Z,17.60
2023-02-09T12:40:24.421Z,17.80
2023-02-09T12:43:26.048Z,15.70
2023-02-09T12:46:23.080Z,16.30
2023-02-09T12:49:10.063Z,15.00
2023-02-09T12:51:52.098Z,15.60
2023-02-09T12:54:39.743Z,15.60
2023-02-09T12:57:51.027Z,15.40
2023-02-09T13:00:55.644Z,15.10
2023-02-09T13:03:29.821Z,13.40
2023-02-09T13:06:11.649Z,13.60
2023-02-09T13:08:53.298Z,13.60
2023-02-09T13:11:41.589Z,13.70
2023-02-09T13:14:16.337Z,13.20
2023-02-09T13:16:59.802Z,14.00
2023-02-09T13:19:54.340Z,13.40
2023-02-09T13:22:40.862Z,14.70
2023-02-09T13:25:16.706Z,12.90
2023-02-09T13:27:50.904Z,12.70
2023-02-09T13:30:32.740Z,12.50
2023-02-09T13:33:13.523Z,12.00
2023-02-09T13:35:58.335Z,14.60
2023-02-09T13:38:34.680Z,14.30
2023-02-09T13:41:08.765Z,14.20
2023-02-09T13:43:44.019Z,16.30
2023-02-09T13:46:26.843Z,17.00
2023-02-09T13:51:42.507Z,17.90
2023-02-09T13:54:21.523Z,16.70
2023-02-09T13:56:53.263Z,18.10
2023-02-09T13:59:25.642Z,16.30
2023-02-09T14:01:57.768Z,16.40
2023-02-09T14:04:34.930Z,13.70
2023-02-09T14:07:10.936Z,15.90
2023-02-09T14:09:52.372Z,17.20
2023-02-09T14:12:55.604Z,17.20
2023-02-09T14:16:02.545Z,17.40
2023-02-09T14:18:53.165Z,16.70
2023-02-09T14:21:34.260Z,15.80
2023-02-09T14:24:18.453Z,17.60
2023-02-09T14:26:54.354Z,17.10
2023-02-09T14:29:29.126Z,18.20
2023-02-09T14:32:03.119Z,17.70
2023-02-09T14:34:37.450Z,15.40
2023-02-09T14:37:32.074Z,15.70
2023-02-09T14:40:20.802Z,15.90
2023-02-09T14:43:17.045Z,16.00
2023-02-09T14:45:58.818Z,15.50
2023-02-09T14:48:32.570Z,15.50
2023-02-09T14:51:14.296Z,14.60
2023-02-09T14:53:46.571Z,14.80
2023-02-09T14:56:28.564Z,17.20
2023-02-09T14:59:00.603Z,17.40
2023-02-09T15:01:33.094Z,13.30
2023-02-09T15:04:05.445Z,16.90
2023-02-09T15:06:37.854Z,18.40
2023-02-09T15:09:11.747Z,18.00
2023-02-09T15:12:01.154Z,18.40
2023-02-09T15:14:35.032Z,19.50
2023-02-09T15:17:15.736Z,19.20
2023-02-09T15:19:48.694Z,19.80
2023-02-09T15:22:22.338Z,20.70
2023-02-09T15:25:03.730Z,20.00
2023-02-09T15:27:42.438Z,19.30
2023-02-09T15:30:21.284Z,21.10
2023-02-09T15:32:55.606Z,21.10
2023-02-09T15:35:29.407Z,22.10
2023-02-09T15:38:02.576Z,19.50
2023-02-09T15:40:55.433Z,22.10
2023-02-09T15:43:46.586Z,23.40
2023-02-09T15:46:36.196Z,21.00
2023-02-09T15:49:08.558Z,21.50
2023-02-09T15:51:41.625Z,22.40
2023-02-09T15:54:18.984Z,21.70
2023-02-09T15:56:50.934Z,21.90
2023-02-09T15:59:28.898Z,20.30
2023-02-09T16:02:03.408Z,21.80
2023-02-09T16:04:35.206Z,21.40
2023-02-09T16:07:07.292Z,20.30
2023-02-09T16:09:40.865Z,24.00
2023-02-09T16:12:13.527Z,21.90
2023-02-09T16:17:16.019Z,23.00
2023-02-09T16:19:49.176Z,22.30
2023-02-09T16:22:25.536Z,27.00
2023-02-09T16:25:00.017Z,24.60
2023-02-09T16:27:34.816Z,26.70
2023-02-09T16:30:18.185Z,29.10
2023-02-09T16:32:50.846Z,28.60
2023-02-09T16:38:19.029Z,27.80
2023-02-09T16:40:51.667Z,27.60
2023-02-09T16:46:03.357Z,23.70
2023-02-09T16:48:46.710Z,20.40
2023-02-09T16:51:19.538Z,18.10
2023-02-09T16:53:53.297Z,25.10
2023-02-09T16:56:26.251Z,24.70
2023-02-09T16:58:58.002Z,27.70
2023-02-09T17:01:30.132Z,26.60
2023-02-09T17:04:03.221Z,26.40
2023-02-09T17:06:35.620Z,27.80
2023-02-09T17:09:13.296Z,28.00
2023-02-09T17:11:45.054Z,26.10
2023-02-09T17:14:16.711Z,18.60
2023-02-09T17:16:59.745Z,23.90
2023-02-09T17:19:47.104Z,22.50
2023-02-09T17:22:20.297Z,21.80
2023-02-09T17:24:52.563Z,20.70
2023-02-09T17:27:24.326Z,20.00
2023-02-09T17:29:56.018Z,19.60
2023-02-09T17:32:28.096Z,13.90
2023-02-09T17:35:00.867Z,19.50
2023-02-09T17:40:03.146Z,18.00
2023-02-09T17:42:37.813Z,16.00
2023-02-09T17:45:22.073Z,18.20
2023-02-09T17:48:05.955Z,16.70
2023-02-09T17:50:44.669Z,16.90
2023-02-09T17:53:20.609Z,17.50
2023-02-09T17:55:53.914Z,17.80
2023-02-09T17:58:26.720Z,17.40
2023-02-09T18:00:59.277Z,19.10
2023-02-09T18:03:31.057Z,18.30
2023-02-09T18:06:03.489Z,19.60
2023-02-09T18:08:35.433Z,18.70
2023-02-09T18:11:14.767Z,15.20
2023-02-09T18:13:46.813Z,20.00
2023-02-09T18:16:18.522Z,18.70
2023-02-09T18:18:50.615Z,18.90
2023-02-09T18:21:22.302Z,20.00
2023-02-09T18:23:54.010Z,19.60
2023-02-09T18:26:25.871Z,18.70
2023-02-09T18:28:57.662Z,21.70
2023-02-09T18:31:29.625Z,21.50
2023-02-09T18:34:01.481Z,16.60
2023-02-09T18:36:33.995Z,20.90
2023-02-09T18:39:06.075Z,22.70
2023-02-09T18:41:37.898Z,21.80
2023-02-09T18:44:09.734Z,22.20
2023-02-09T18:46:42.506Z,15.60
2023-02-09T18:49:14.865Z,21.70
2023-02-09T18:51:46.768Z,20.50
2023-02-09T18:54:18.573Z,20.80
2023-02-09T18:56:50.479Z,19.30
2023-02-09T18:59:22.748Z,18.00
2023-02-09T19:01:54.573Z,18.80
2023-02-09T19:04:26.366Z,19.50
2023-02-09T19:06:58.078Z,18.90
2023-02-09T19:09:29.863Z,20.40
2023-02-09T19:12:01.630Z,12.80
2023-02-09T19:14:40.551Z,18.40
2023-02-09T19:17:16.370Z,18.90
2023-02-09T19:19:48.976Z,19.70
2023-02-09T19:22:22.136Z,19.10
2023-02-09T19:24:57.208Z,19.70
2023-02-09T19:27:29.813Z,19.10
2023-02-09T19:30:01.556Z,20.60
2023-02-09T19:32:33.784Z,19.00
2023-02-09T19:35:07.187Z,21.80
2023-02-09T19:37:43.461Z,21.80
2023-02-09T19:40:21.450Z,19.60
2023-02-09T19:42:53.182Z,20.70
2023-02-09T19:45:24.942Z,20.60
2023-02-09T19:47:57.480Z,20.20
2023-02-09T19:50:29.308Z,21.20
2023-02-09T19:53:02.763Z,19.60
2023-02-09T19:55:34.910Z,19.20
2023-02-09T19:58:06.683Z,14.20
2023-02-09T20:00:38.813Z,22.60
2023-02-09T20:03:11.263Z,14.50
2023-02-09T20:05:44.095Z,20.50
2023-02-09T20:08:18.836Z,19.70
2023-02-09T20:10:50.513Z,19.70
2023-02-09T20:18:26.493Z,15.90
2023-02-09T20:20:59.356Z,19.20
2023-02-09T20:23:31.186Z,21.40
2023-02-09T20:26:02.922Z,21.00
2023-02-09T20:28:34.745Z,20.50
2023-02-09T20:31:07.540Z,20.20
2023-02-09T20:33:41.211Z,22.20
2023-02-09T20:36:13.369Z,20.30
2023-02-09T20:38:45.754Z,22.40
2023-02-09T20:41:18.923Z,23.00
2023-02-09T20:44:08.587Z,22.00
2023-02-09T20:46:57.553Z,20.00
2023-02-09T20:49:31.384Z,20.40
2023-02-09T20:52:03.643Z,21.40
2023-02-09T20:54:36.330Z,22.10
2023-02-09T20:57:08.467Z,22.70
2023-02-09T20:59:40.355Z,22.10
2023-02-09T21:02:15.021Z,20.60
2023-02-09T21:04:47.078Z,21.10
2023-02-09T21:07:20.181Z,21.50
2023-02-09T21:10:13.030Z,18.70
2023-02-09T21:13:02.772Z,20.10
2023-02-09T21:15:35.155Z,20.10
2023-02-09T21:18:07.561Z,19.30
2023-02-09T21:20:39.623Z,20.40
2023-02-09T21:23:11.548Z,16.60
2023-02-09T21:25:44.287Z,19.60
2023-02-09T21:28:16.246Z,18.60
2023-02-09T21:30:48.732Z,19.50
2023-02-09T21:35:50.963Z,19.60
2023-02-09T21:38:22.879Z,21.10
2023-02-09T21:40:54.805Z,14.10
2023-02-09T21:43:27.008Z,19.70
2023-02-09T21:45:58.751Z,20.20
2023-02-09T21:48:30.755Z,20.30
2023-02-09T21:51:04.080Z,14.80
2023-02-09T21:53:38.908Z,19.30
2023-02-09T21:56:12.466Z,19.00
2023-02-09T21:58:44.443Z,21.60
2023-02-09T22:01:16.265Z,20.50
2023-02-09T22:03:52.640Z,15.20
2023-02-09T22:06:25.284Z,20.50
2023-02-09T22:11:27.603Z,19.40
2023-02-09T22:13:59.346Z,20.50
2023-02-09T22:16:37.258Z,20.80
2023-02-09T22:19:10.695Z,19.30
2023-02-09T22:21:42.587Z,20.20
2023-02-09T22:24:17.261Z,20.20
2023-02-09T22:26:49.657Z,19.30
2023-02-09T22:29:21.651Z,18.40
2023-02-09T22:31:53.608Z,20.00
2023-02-09T22:34:25.555Z,20.80
2023-02-09T22:36:57.357Z,14.20
2023-02-09T22:39:29.239Z,18.80
2023-02-09T22:42:01.350Z,18.80
2023-02-09T22:44:33.441Z,13.80
2023-02-09T22:47:05.679Z,17.70
2023-02-09T22:49:37.450Z,19.60
2023-02-09T22:52:09.683Z,18.90
2023-02-09T22:54:41.817Z,17.50
2023-02-09T22:57:13.594Z,18.90
2023-02-09T22:59:45.461Z,19.20
2023-02-09T23:02:17.161Z,19.70
2023-02-09T23:04:49.063Z,19.20
2023-02-09T23:07:20.748Z,18.70
2023-02-09T23:09:52.602Z,14.80
2023-02-09T23:12:24.306Z,18.60
2023-02-09T23:14:57.450Z,18.60
2023-02-09T23:17:29.598Z,17.20
2023-02-09T23:20:01.306Z,17.40
2023-02-09T23:22:33.093Z,17.20
2023-02-09T23:25:06.202Z,18.00
2023-02-09T23:27:37.898Z,17.20
2023-02-09T23:30:11.386Z,17.80
2023-02-09T23:32:43.294Z,17.30
2023-02-09T23:35:17.551Z,18.70
2023-02-09T23:37:49.810Z,18.10
2023-02-09T23:40:21.732Z,16.30
2023-02-09T23:42:53.470Z,16.40
2023-02-09T23:45:25.848Z,17.00
2023-02-09T23:47:57.688Z,19.10
2023-02-09T23:50:29.505Z,16.60
2023-02-09T23:53:01.227Z,17.80
2023-02-09T23:55:33.139Z,17.90
2023-02-09T23:58:04.897Z,17.50
